sensor_id;sensor_type;location;lat;lon;timestamp;temperature;humidity
21502;DHT22;27639;48.674;9.242;2023-03-08T00:00:23;7.10;42.50
21502;DHT22;27639;48.674;9.242;2023-03-08T00:02:48;7.00;42.60
21502;DHT22;27639;48.674;9.242;2023-03-08T00:05:14;7.00;42.70
21502;DHT22;27639;48.674;9.242;2023-03-08T00:07:41;7.00;42.70
21502;DHT22;27639;48.674;9.242;2023-03-08T00:10:07;7.00;42.80
21502;DHT22;27639;48.674;9.242;2023-03-08T00:12:32;7.00;42.90
21502;DHT22;27639;48.674;9.242;2023-03-08T00:14:58;6.90;43.10
21502;DHT22;27639;48.674;9.242;2023-03-08T00:17:23;6.90;43.10
21502;DHT22;27639;48.674;9.242;2023-03-08T00:19:52;6.90;43.20
21502;DHT22;27639;48.674;9.242;2023-03-08T00:22:17;6.90;43.20
21502;DHT22;27639;48.674;9.242;2023-03-08T00:24:43;7.00;43.30
21502;DHT22;27639;48.674;9.242;2023-03-08T00:27:09;7.00;43.20
21502;DHT22;27639;48.674;9.242;2023-03-08T00:29:34;7.00;43.40
21502;DHT22;27639;48.674;9.242;2023-03-08T00:32:00;6.90;43.40
21502;DHT22;27639;48.674;9.242;2023-03-08T00:34:25;6.90;43.40
21502;DHT22;27639;48.674;9.242;2023-03-08T00:36:51;7.00;43.40
21502;DHT22;27639;48.674;9.242;2023-03-08T00:39:17;7.00;44.00
21502;DHT22;27639;48.674;9.242;2023-03-08T00:41:42;7.00;43.50
21502;DHT22;27639;48.674;9.242;2023-03-08T00:44:08;7.00;43.60
21502;DHT22;27639;48.674;9.242;2023-03-08T00:46:33;6.90;43.60
21502;DHT22;27639;48.674;9.242;2023-03-08T00:48:59;7.00;43.70
21502;DHT22;27639;48.674;9.242;2023-03-08T00:51:25;7.00;43.70
21502;DHT22;27639;48.674;9.242;2023-03-08T00:53:51;7.00;43.60
21502;DHT22;27639;48.674;9.242;2023-03-08T00:56:16;7.00;43.60
21502;DHT22;27639;48.674;9.242;2023-03-08T00:58:42;7.00;43.50
21502;DHT22;27639;48.674;9.242;2023-03-08T01:01:12;7.10;43.40
21502;DHT22;27639;48.674;9.242;2023-03-08T01:03:38;7.10;43.40
21502;DHT22;27639;48.674;9.242;2023-03-08T01:06:09;7.00;43.30
21502;DHT22;27639;48.674;9.242;2023-03-08T01:08:35;7.00;43.50
21502;DHT22;27639;48.674;9.242;2023-03-08T01:11:02;7.00;43.50
21502;DHT22;27639;48.674;9.242;2023-03-08T01:13:33;7.00;43.40
21502;DHT22;27639;48.674;9.242;2023-03-08T01:15:59;7.00;43.20
21502;DHT22;27639;48.674;9.242;2023-03-08T01:18:25;7.00;43.30
21502;DHT22;27639;48.674;9.242;2023-03-08T01:23:20;7.00;43.40
21502;DHT22;27639;48.674;9.242;2023-03-08T01:25:46;7.00;43.40
21502;DHT22;27639;48.674;9.242;2023-03-08T01:28:11;6.90;43.40
21502;DHT22;27639;48.674;9.242;2023-03-08T01:30:37;6.90;43.60
21502;DHT22;27639;48.674;9.242;2023-03-08T01:33:02;6.80;43.50
21502;DHT22;27639;48.674;9.242;2023-03-08T01:35:28;6.80;43.60
21502;DHT22;27639;48.674;9.242;2023-03-08T01:37:53;6.80;43.70
21502;DHT22;27639;48.674;9.242;2023-03-08T01:40:20;6.80;43.70
21502;DHT22;27639;48.674;9.242;2023-03-08T01:42:45;6.80;43.70
21502;DHT22;27639;48.674;9.242;2023-03-08T01:48:15;6.70;43.90
21502;DHT22;27639;48.674;9.242;2023-03-08T01:50:42;6.70;44.00
21502;DHT22;27639;48.674;9.242;2023-03-08T01:53:09;6.70;43.90
21502;DHT22;27639;48.674;9.242;2023-03-08T01:55:34;6.70;44.00
21502;DHT22;27639;48.674;9.242;2023-03-08T01:58:00;6.70;44.00
21502;DHT22;27639;48.674;9.242;2023-03-08T02:00:25;6.60;44.00
21502;DHT22;27639;48.674;9.242;2023-03-08T02:03:03;6.60;44.20
21502;DHT22;27639;48.674;9.242;2023-03-08T02:05:30;6.60;44.10
21502;DHT22;27639;48.674;9.242;2023-03-08T02:07:56;6.60;44.10
21502;DHT22;27639;48.674;9.242;2023-03-08T02:10:22;6.60;44.20
21502;DHT22;27639;48.674;9.242;2023-03-08T02:12:48;6.60;44.30
21502;DHT22;27639;48.674;9.242;2023-03-08T02:15:17;6.60;44.30
21502;DHT22;27639;48.674;9.242;2023-03-08T02:17:43;6.50;44.30
21502;DHT22;27639;48.674;9.242;2023-03-08T02:20:41;6.60;44.40
21502;DHT22;27639;48.674;9.242;2023-03-08T02:23:18;6.60;44.50
21502;DHT22;27639;48.674;9.242;2023-03-08T02:25:56;6.60;44.40
21502;DHT22;27639;48.674;9.242;2023-03-08T02:28:25;6.60;44.40
21502;DHT22;27639;48.674;9.242;2023-03-08T02:30:51;6.70;44.30
21502;DHT22;27639;48.674;9.242;2023-03-08T02:33:17;6.60;44.50
21502;DHT22;27639;48.674;9.242;2023-03-08T02:35:44;6.60;44.50
21502;DHT22;27639;48.674;9.242;2023-03-08T02:38:11;6.60;44.60
21502;DHT22;27639;48.674;9.242;2023-03-08T02:40:38;6.60;44.60
21502;DHT22;27639;48.674;9.242;2023-03-08T02:43:04;6.60;44.60
21502;DHT22;27639;48.674;9.242;2023-03-08T02:45:30;6.60;44.60
21502;DHT22;27639;48.674;9.242;2023-03-08T02:47:56;6.60;44.60
21502;DHT22;27639;48.674;9.242;2023-03-08T02:50:21;6.60;44.60
21502;DHT22;27639;48.674;9.242;2023-03-08T02:52:47;6.60;44.60
21502;DHT22;27639;48.674;9.242;2023-03-08T02:55:12;6.60;44.60
21502;DHT22;27639;48.674;9.242;2023-03-08T02:57:38;6.60;44.70
21502;DHT22;27639;48.674;9.242;2023-03-08T03:00:04;6.50;44.70
21502;DHT22;27639;48.674;9.242;2023-03-08T03:02:33;6.60;44.80
21502;DHT22;27639;48.674;9.242;2023-03-08T03:04:59;6.60;44.80
21502;DHT22;27639;48.674;9.242;2023-03-08T03:07:24;6.60;44.80
21502;DHT22;27639;48.674;9.242;2023-03-08T03:09:50;6.60;44.80
21502;DHT22;27639;48.674;9.242;2023-03-08T03:12:15;6.60;44.80
21502;DHT22;27639;48.674;9.242;2023-03-08T03:14:41;6.60;44.80
21502;DHT22;27639;48.674;9.242;2023-03-08T03:17:06;6.60;44.80
21502;DHT22;27639;48.674;9.242;2023-03-08T03:19:32;6.60;44.80
21502;DHT22;27639;48.674;9.242;2023-03-08T03:21:57;6.70;44.80
21502;DHT22;27639;48.674;9.242;2023-03-08T03:24:23;6.80;44.60
21502;DHT22;27639;48.674;9.242;2023-03-08T03:26:49;6.80;44.50
21502;DHT22;27639;48.674;9.242;2023-03-08T03:29:15;6.90;44.40
21502;DHT22;27639;48.674;9.242;2023-03-08T03:31:41;6.90;44.40
21502;DHT22;27639;48.674;9.242;2023-03-08T03:34:06;7.00;44.30
21502;DHT22;27639;48.674;9.242;2023-03-08T03:36:32;7.00;44.20
21502;DHT22;27639;48.674;9.242;2023-03-08T03:38:58;7.00;44.20
21502;DHT22;27639;48.674;9.242;2023-03-08T03:41:24;7.00;44.10
21502;DHT22;27639;48.674;9.242;2023-03-08T03:43:50;7.10;44.20
21502;DHT22;27639;48.674;9.242;2023-03-08T03:46:19;7.10;44.10
21502;DHT22;27639;48.674;9.242;2023-03-08T03:48:45;7.10;43.90
21502;DHT22;27639;48.674;9.242;2023-03-08T03:51:19;7.20;44.00
21502;DHT22;27639;48.674;9.242;2023-03-08T03:53:45;7.20;44.00
21502;DHT22;27639;48.674;9.242;2023-03-08T03:56:25;7.30;43.90
21502;DHT22;27639;48.674;9.242;2023-03-08T03:58:51;7.30;43.90
21502;DHT22;27639;48.674;9.242;2023-03-08T04:03:46;7.40;43.70
21502;DHT22;27639;48.674;9.242;2023-03-08T04:06:16;7.40;43.70
21502;DHT22;27639;48.674;9.242;2023-03-08T04:08:43;7.40;43.70
21502;DHT22;27639;48.674;9.242;2023-03-08T04:11:14;7.40;43.60
21502;DHT22;27639;48.674;9.242;2023-03-08T04:13:41;7.50;43.60
21502;DHT22;27639;48.674;9.242;2023-03-08T04:18:39;7.50;43.60
21502;DHT22;27639;48.674;9.242;2023-03-08T04:21:05;7.50;43.60
21502;DHT22;27639;48.674;9.242;2023-03-08T04:23:31;7.50;43.70
21502;DHT22;27639;48.674;9.242;2023-03-08T04:25:57;7.50;43.60
21502;DHT22;27639;48.674;9.242;2023-03-08T04:28:23;7.50;43.70
21502;DHT22;27639;48.674;9.242;2023-03-08T04:30:48;7.50;43.70
21502;DHT22;27639;48.674;9.242;2023-03-08T04:33:14;7.40;43.70
21502;DHT22;27639;48.674;9.242;2023-03-08T04:35:39;7.40;43.70
21502;DHT22;27639;48.674;9.242;2023-03-08T04:38:05;7.40;43.80
21502;DHT22;27639;48.674;9.242;2023-03-08T04:40:31;7.40;43.80
21502;DHT22;27639;48.674;9.242;2023-03-08T04:42:57;7.30;43.90
21502;DHT22;27639;48.674;9.242;2023-03-08T04:45:22;7.30;44.10
21502;DHT22;27639;48.674;9.242;2023-03-08T04:47:48;7.20;44.00
21502;DHT22;27639;48.674;9.242;2023-03-08T04:50:13;7.20;44.10
21502;DHT22;27639;48.674;9.242;2023-03-08T04:52:39;7.10;44.20
21502;DHT22;27639;48.674;9.242;2023-03-08T04:55:05;7.20;44.30
21502;DHT22;27639;48.674;9.242;2023-03-08T04:57:31;7.10;44.40
21502;DHT22;27639;48.674;9.242;2023-03-08T04:59:56;7.10;44.50
21502;DHT22;27639;48.674;9.242;2023-03-08T05:02:22;7.00;44.70
21502;DHT22;27639;48.674;9.242;2023-03-08T05:04:48;7.00;44.70
21502;DHT22;27639;48.674;9.242;2023-03-08T05:07:14;7.10;44.70
21502;DHT22;27639;48.674;9.242;2023-03-08T05:09:39;7.00;44.70
21502;DHT22;27639;48.674;9.242;2023-03-08T05:12:05;7.00;44.80
21502;DHT22;27639;48.674;9.242;2023-03-08T05:14:31;7.10;44.80
21502;DHT22;27639;48.674;9.242;2023-03-08T05:16:57;7.20;44.60
21502;DHT22;27639;48.674;9.242;2023-03-08T05:19:23;7.30;44.60
21502;DHT22;27639;48.674;9.242;2023-03-08T05:21:48;7.30;44.60
21502;DHT22;27639;48.674;9.242;2023-03-08T05:24:14;7.40;44.40
21502;DHT22;27639;48.674;9.242;2023-03-08T05:26:40;7.40;44.40
21502;DHT22;27639;48.674;9.242;2023-03-08T05:29:05;7.50;44.30
21502;DHT22;27639;48.674;9.242;2023-03-08T05:31:32;7.40;44.40
21502;DHT22;27639;48.674;9.242;2023-03-08T05:33:58;7.40;44.40
21502;DHT22;27639;48.674;9.242;2023-03-08T05:36:24;7.40;44.50
21502;DHT22;27639;48.674;9.242;2023-03-08T05:38:53;7.40;44.40
21502;DHT22;27639;48.674;9.242;2023-03-08T05:41:19;7.40;44.40
21502;DHT22;27639;48.674;9.242;2023-03-08T05:43:45;7.40;44.40
21502;DHT22;27639;48.674;9.242;2023-03-08T05:46:14;7.50;44.40
21502;DHT22;27639;48.674;9.242;2023-03-08T05:48:40;7.50;44.30
21502;DHT22;27639;48.674;9.242;2023-03-08T05:51:10;7.60;44.30
21502;DHT22;27639;48.674;9.242;2023-03-08T05:53:36;7.60;44.30
21502;DHT22;27639;48.674;9.242;2023-03-08T05:56:10;7.60;44.40
21502;DHT22;27639;48.674;9.242;2023-03-08T05:58:36;7.70;44.30
21502;DHT22;27639;48.674;9.242;2023-03-08T06:01:27;7.60;44.30
21502;DHT22;27639;48.674;9.242;2023-03-08T06:03:55;7.60;44.20
21502;DHT22;27639;48.674;9.242;2023-03-08T06:06:23;7.70;44.40
21502;DHT22;27639;48.674;9.242;2023-03-08T06:08:49;7.70;44.40
21502;DHT22;27639;48.674;9.242;2023-03-08T06:11:15;7.70;44.40
21502;DHT22;27639;48.674;9.242;2023-03-08T06:13:41;7.80;44.50
21502;DHT22;27639;48.674;9.242;2023-03-08T06:16:07;7.80;44.50
21502;DHT22;27639;48.674;9.242;2023-03-08T06:18:35;7.80;44.50
21502;DHT22;27639;48.674;9.242;2023-03-08T06:21:04;7.80;44.50
21502;DHT22;27639;48.674;9.242;2023-03-08T06:23:31;7.80;44.50
21502;DHT22;27639;48.674;9.242;2023-03-08T06:25:57;7.80;44.50
21502;DHT22;27639;48.674;9.242;2023-03-08T06:28:23;7.70;44.30
21502;DHT22;27639;48.674;9.242;2023-03-08T06:30:49;7.70;44.40
21502;DHT22;27639;48.674;9.242;2023-03-08T06:33:20;7.70;45.10
21502;DHT22;27639;48.674;9.242;2023-03-08T06:36:00;7.70;44.40
21502;DHT22;27639;48.674;9.242;2023-03-08T06:38:27;7.80;44.40
21502;DHT22;27639;48.674;9.242;2023-03-08T06:40:53;7.80;44.50
21502;DHT22;27639;48.674;9.242;2023-03-08T06:43:19;7.80;44.40
21502;DHT22;27639;48.674;9.242;2023-03-08T06:45:45;7.80;44.30
21502;DHT22;27639;48.674;9.242;2023-03-08T06:48:10;7.80;44.30
21502;DHT22;27639;48.674;9.242;2023-03-08T06:50:36;7.80;44.40
21502;DHT22;27639;48.674;9.242;2023-03-08T06:53:01;7.80;44.50
21502;DHT22;27639;48.674;9.242;2023-03-08T06:55:27;7.80;44.50
21502;DHT22;27639;48.674;9.242;2023-03-08T06:57:53;7.80;44.50
21502;DHT22;27639;48.674;9.242;2023-03-08T07:00:20;7.80;44.50
21502;DHT22;27639;48.674;9.242;2023-03-08T07:02:46;7.80;44.50
21502;DHT22;27639;48.674;9.242;2023-03-08T07:05:13;7.80;45.10
21502;DHT22;27639;48.674;9.242;2023-03-08T07:07:43;7.90;44.50
21502;DHT22;27639;48.674;9.242;2023-03-08T07:10:10;7.90;44.50
21502;DHT22;27639;48.674;9.242;2023-03-08T07:12:37;7.90;44.50
21502;DHT22;27639;48.674;9.242;2023-03-08T07:15:10;8.00;44.60
21502;DHT22;27639;48.674;9.242;2023-03-08T07:17:38;8.10;44.70
21502;DHT22;27639;48.674;9.242;2023-03-08T07:20:05;8.00;44.60
21502;DHT22;27639;48.674;9.242;2023-03-08T07:22:31;8.00;44.80
21502;DHT22;27639;48.674;9.242;2023-03-08T07:24:56;8.00;44.90
21502;DHT22;27639;48.674;9.242;2023-03-08T07:27:22;8.00;45.00
21502;DHT22;27639;48.674;9.242;2023-03-08T07:29:47;8.10;45.00
21502;DHT22;27639;48.674;9.242;2023-03-08T07:32:13;8.20;45.00
21502;DHT22;27639;48.674;9.242;2023-03-08T07:34:39;8.20;44.90
21502;DHT22;27639;48.674;9.242;2023-03-08T07:37:04;8.30;45.00
21502;DHT22;27639;48.674;9.242;2023-03-08T07:39:30;8.30;45.00
21502;DHT22;27639;48.674;9.242;2023-03-08T07:41:55;8.30;45.10
21502;DHT22;27639;48.674;9.242;2023-03-08T07:44:21;8.30;45.30
21502;DHT22;27639;48.674;9.242;2023-03-08T07:46:47;8.20;45.50
21502;DHT22;27639;48.674;9.242;2023-03-08T07:49:12;8.30;45.60
21502;DHT22;27639;48.674;9.242;2023-03-08T07:51:38;8.30;45.50
21502;DHT22;27639;48.674;9.242;2023-03-08T07:54:04;8.40;45.60
21502;DHT22;27639;48.674;9.242;2023-03-08T07:56:29;8.50;46.30
21502;DHT22;27639;48.674;9.242;2023-03-08T07:58:55;8.50;45.60
21502;DHT22;27639;48.674;9.242;2023-03-08T08:01:22;8.60;45.50
21502;DHT22;27639;48.674;9.242;2023-03-08T08:03:47;8.60;45.50
21502;DHT22;27639;48.674;9.242;2023-03-08T08:06:13;8.70;45.50
21502;DHT22;27639;48.674;9.242;2023-03-08T08:08:39;8.70;45.50
21502;DHT22;27639;48.674;9.242;2023-03-08T08:11:15;8.80;45.50
21502;DHT22;27639;48.674;9.242;2023-03-08T08:13:42;8.80;45.40
21502;DHT22;27639;48.674;9.242;2023-03-08T08:16:08;8.80;45.50
21502;DHT22;27639;48.674;9.242;2023-03-08T08:18:34;8.80;45.50
21502;DHT22;27639;48.674;9.242;2023-03-08T08:21:05;8.80;45.40
21502;DHT22;27639;48.674;9.242;2023-03-08T08:23:34;8.90;45.50
21502;DHT22;27639;48.674;9.242;2023-03-08T08:26:03;8.90;45.60
21502;DHT22;27639;48.674;9.242;2023-03-08T08:28:28;8.90;45.70
21502;DHT22;27639;48.674;9.242;2023-03-08T08:30:59;8.90;45.70
21502;DHT22;27639;48.674;9.242;2023-03-08T08:33:24;8.90;45.80
21502;DHT22;27639;48.674;9.242;2023-03-08T08:35:50;8.90;45.90
21502;DHT22;27639;48.674;9.242;2023-03-08T08:38:16;8.90;45.90
21502;DHT22;27639;48.674;9.242;2023-03-08T08:40:41;8.90;46.00
21502;DHT22;27639;48.674;9.242;2023-03-08T08:43:07;8.90;45.90
21502;DHT22;27639;48.674;9.242;2023-03-08T08:45:32;9.00;46.00
21502;DHT22;27639;48.674;9.242;2023-03-08T08:47:58;9.00;46.00
21502;DHT22;27639;48.674;9.242;2023-03-08T08:50:23;9.00;46.10
21502;DHT22;27639;48.674;9.242;2023-03-08T08:52:49;9.00;46.10
21502;DHT22;27639;48.674;9.242;2023-03-08T08:55:15;9.00;46.20
21502;DHT22;27639;48.674;9.242;2023-03-08T08:57:40;9.00;46.20
21502;DHT22;27639;48.674;9.242;2023-03-08T09:00:07;9.10;46.10
21502;DHT22;27639;48.674;9.242;2023-03-08T09:02:35;9.10;46.00
21502;DHT22;27639;48.674;9.242;2023-03-08T09:05:00;9.10;45.70
21502;DHT22;27639;48.674;9.242;2023-03-08T09:07:26;9.10;46.00
21502;DHT22;27639;48.674;9.242;2023-03-08T09:09:55;9.10;45.70
21502;DHT22;27639;48.674;9.242;2023-03-08T09:12:20;9.10;46.10
21502;DHT22;27639;48.674;9.242;2023-03-08T09:14:46;9.10;46.10
21502;DHT22;27639;48.674;9.242;2023-03-08T09:17:12;9.10;46.90
21502;DHT22;27639;48.674;9.242;2023-03-08T09:19:37;9.10;46.10
21502;DHT22;27639;48.674;9.242;2023-03-08T09:22:03;9.10;46.50
21502;DHT22;27639;48.674;9.242;2023-03-08T09:24:29;9.10;46.60
21502;DHT22;27639;48.674;9.242;2023-03-08T09:26:55;9.10;46.70
21502;DHT22;27639;48.674;9.242;2023-03-08T09:29:21;9.10;46.70
21502;DHT22;27639;48.674;9.242;2023-03-08T09:31:46;9.20;46.80
21502;DHT22;27639;48.674;9.242;2023-03-08T09:34:12;9.20;46.80
21502;DHT22;27639;48.674;9.242;2023-03-08T09:36:40;9.30;47.10
21502;DHT22;27639;48.674;9.242;2023-03-08T09:39:07;9.40;47.00
21502;DHT22;27639;48.674;9.242;2023-03-08T09:41:54;9.40;46.90
21502;DHT22;27639;48.674;9.242;2023-03-08T09:47:27;9.50;47.10
21502;DHT22;27639;48.674;9.242;2023-03-08T09:50:07;9.50;47.00
21502;DHT22;27639;48.674;9.242;2023-03-08T09:52:42;9.60;47.00
21502;DHT22;27639;48.674;9.242;2023-03-08T09:55:22;9.60;47.00
21502;DHT22;27639;48.674;9.242;2023-03-08T09:57:53;9.70;47.10
21502;DHT22;27639;48.674;9.242;2023-03-08T10:00:28;9.70;47.20
21502;DHT22;27639;48.674;9.242;2023-03-08T10:08:16;9.80;47.30
21502;DHT22;27639;48.674;9.242;2023-03-08T10:11:19;9.90;47.50
21502;DHT22;27639;48.674;9.242;2023-03-08T10:13:52;10.00;46.70
21502;DHT22;27639;48.674;9.242;2023-03-08T10:16:33;10.00;47.10
21502;DHT22;27639;48.674;9.242;2023-03-08T10:21:46;10.20;47.30
21502;DHT22;27639;48.674;9.242;2023-03-08T10:26:53;10.30;47.80
21502;DHT22;27639;48.674;9.242;2023-03-08T10:29:19;10.40;48.00
21502;DHT22;27639;48.674;9.242;2023-03-08T10:31:45;10.40;49.10
21502;DHT22;27639;48.674;9.242;2023-03-08T10:34:15;10.50;48.80
21502;DHT22;27639;48.674;9.242;2023-03-08T10:39:21;10.50;51.20
21502;DHT22;27639;48.674;9.242;2023-03-08T10:41:53;10.60;51.10
21502;DHT22;27639;48.674;9.242;2023-03-08T10:44:38;10.70;52.10
21502;DHT22;27639;48.674;9.242;2023-03-08T10:49:47;10.90;53.20
21502;DHT22;27639;48.674;9.242;2023-03-08T10:52:33;11.00;53.20
21502;DHT22;27639;48.674;9.242;2023-03-08T10:55:12;11.10;54.20
21502;DHT22;27639;48.674;9.242;2023-03-08T10:57:39;11.30;53.70
21502;DHT22;27639;48.674;9.242;2023-03-08T11:00:35;11.50;53.90
21502;DHT22;27639;48.674;9.242;2023-03-08T11:03:17;11.60;54.00
21502;DHT22;27639;48.674;9.242;2023-03-08T11:08:34;11.70;54.30
21502;DHT22;27639;48.674;9.242;2023-03-08T11:11:01;11.90;54.30
21502;DHT22;27639;48.674;9.242;2023-03-08T11:13:33;12.10;54.30
21502;DHT22;27639;48.674;9.242;2023-03-08T11:16:20;12.10;54.30
21502;DHT22;27639;48.674;9.242;2023-03-08T11:29:55;13.20;54.10
21502;DHT22;27639;48.674;9.242;2023-03-08T11:35:07;13.50;53.30
21502;DHT22;27639;48.674;9.242;2023-03-08T11:37:37;13.70;53.20
21502;DHT22;27639;48.674;9.242;2023-03-08T11:40:28;13.80;53.10
21502;DHT22;27639;48.674;9.242;2023-03-08T11:59:15;14.30;52.40
21502;DHT22;27639;48.674;9.242;2023-03-08T12:04:23;14.40;52.40
21502;DHT22;27639;48.674;9.242;2023-03-08T12:06:50;14.40;52.40
21502;DHT22;27639;48.674;9.242;2023-03-08T12:09:27;14.50;52.30
21502;DHT22;27639;48.674;9.242;2023-03-08T12:12:02;14.50;52.20
21502;DHT22;27639;48.674;9.242;2023-03-08T12:14:33;14.40;52.40
21502;DHT22;27639;48.674;9.242;2023-03-08T12:17:23;14.50;52.30
21502;DHT22;27639;48.674;9.242;2023-03-08T12:19:50;14.60;52.10
21502;DHT22;27639;48.674;9.242;2023-03-08T12:25:26;14.50;52.50
21502;DHT22;27639;48.674;9.242;2023-03-08T12:30:38;14.50;52.50
21502;DHT22;27639;48.674;9.242;2023-03-08T12:33:10;14.60;52.50
21502;DHT22;27639;48.674;9.242;2023-03-08T12:35:52;14.70;52.50
21502;DHT22;27639;48.674;9.242;2023-03-08T12:40:48;14.70;52.50
21502;DHT22;27639;48.674;9.242;2023-03-08T12:45:47;14.70;52.30
21502;DHT22;27639;48.674;9.242;2023-03-08T12:48:23;14.70;52.50
21502;DHT22;27639;48.674;9.242;2023-03-08T12:51:02;14.80;52.50
21502;DHT22;27639;48.674;9.242;2023-03-08T12:58:27;14.70;52.40
21502;DHT22;27639;48.674;9.242;2023-03-08T13:01:00;14.80;52.40
21502;DHT22;27639;48.674;9.242;2023-03-08T13:03:39;14.80;52.30
21502;DHT22;27639;48.674;9.242;2023-03-08T13:08:56;14.80;52.50
21502;DHT22;27639;48.674;9.242;2023-03-08T13:11:24;14.80;52.60
21502;DHT22;27639;48.674;9.242;2023-03-08T13:13:54;14.80;52.50
21502;DHT22;27639;48.674;9.242;2023-03-08T13:16:38;14.80;52.70
21502;DHT22;27639;48.674;9.242;2023-03-08T13:21:39;14.70;53.00
21502;DHT22;27639;48.674;9.242;2023-03-08T13:27:26;14.60;53.20
21502;DHT22;27639;48.674;9.242;2023-03-08T13:30:06;14.60;53.10
21502;DHT22;27639;48.674;9.242;2023-03-08T13:32:33;14.60;53.50
21502;DHT22;27639;48.674;9.242;2023-03-08T13:35:03;14.70;53.40
21502;DHT22;27639;48.674;9.242;2023-03-08T13:37:29;14.70;53.30
21502;DHT22;27639;48.674;9.242;2023-03-08T13:39:58;14.80;53.20
21502;DHT22;27639;48.674;9.242;2023-03-08T13:42:26;14.80;53.10
21502;DHT22;27639;48.674;9.242;2023-03-08T13:45:04;14.80;53.10
21502;DHT22;27639;48.674;9.242;2023-03-08T13:47:34;14.90;53.00
21502;DHT22;27639;48.674;9.242;2023-03-08T13:50:00;14.80;53.20
21502;DHT22;27639;48.674;9.242;2023-03-08T13:52:29;14.70;53.20
21502;DHT22;27639;48.674;9.242;2023-03-08T13:54:59;14.80;53.30
21502;DHT22;27639;48.674;9.242;2023-03-08T13:57:30;14.80;53.10
21502;DHT22;27639;48.674;9.242;2023-03-08T13:59:59;14.90;53.00
21502;DHT22;27639;48.674;9.242;2023-03-08T14:02:27;15.00;52.90
21502;DHT22;27639;48.674;9.242;2023-03-08T14:04:54;14.90;52.80
21502;DHT22;27639;48.674;9.242;2023-03-08T14:09:47;15.00;52.90
21502;DHT22;27639;48.674;9.242;2023-03-08T14:12:16;15.10;52.60
21502;DHT22;27639;48.674;9.242;2023-03-08T14:14:43;15.20;52.40
21502;DHT22;27639;48.674;9.242;2023-03-08T14:17:25;15.20;52.30
21502;DHT22;27639;48.674;9.242;2023-03-08T14:19:57;15.20;52.30
21502;DHT22;27639;48.674;9.242;2023-03-08T14:22:26;15.30;52.40
21502;DHT22;27639;48.674;9.242;2023-03-08T14:24:59;15.30;52.30
21502;DHT22;27639;48.674;9.242;2023-03-08T14:27:38;15.30;52.20
21502;DHT22;27639;48.674;9.242;2023-03-08T14:30:22;15.40;52.10
21502;DHT22;27639;48.674;9.242;2023-03-08T14:35:29;15.50;51.90
21502;DHT22;27639;48.674;9.242;2023-03-08T14:37:55;15.60;51.80
21502;DHT22;27639;48.674;9.242;2023-03-08T14:40:33;15.60;51.60
21502;DHT22;27639;48.674;9.242;2023-03-08T14:43:03;15.60;52.10
21502;DHT22;27639;48.674;9.242;2023-03-08T14:47:57;15.80;51.50
21502;DHT22;27639;48.674;9.242;2023-03-08T14:50:33;15.90;51.30
21502;DHT22;27639;48.674;9.242;2023-03-08T14:53:02;15.80;51.30
21502;DHT22;27639;48.674;9.242;2023-03-08T14:55:31;15.80;51.60
21502;DHT22;27639;48.674;9.242;2023-03-08T14:58:03;15.90;51.70
21502;DHT22;27639;48.674;9.242;2023-03-08T15:00:32;15.90;52.10
21502;DHT22;27639;48.674;9.242;2023-03-08T15:02:59;15.80;52.50
21502;DHT22;27639;48.674;9.242;2023-03-08T15:05:25;15.90;52.40
21502;DHT22;27639;48.674;9.242;2023-03-08T15:07:51;16.00;52.30
21502;DHT22;27639;48.674;9.242;2023-03-08T15:10:25;16.00;52.40
21502;DHT22;27639;48.674;9.242;2023-03-08T15:12:51;15.80;52.20
21502;DHT22;27639;48.674;9.242;2023-03-08T15:15:17;15.80;52.30
21502;DHT22;27639;48.674;9.242;2023-03-08T15:17:43;15.80;52.50
21502;DHT22;27639;48.674;9.242;2023-03-08T15:20:10;15.70;53.50
21502;DHT22;27639;48.674;9.242;2023-03-08T15:22:41;15.60;53.40
21502;DHT22;27639;48.674;9.242;2023-03-08T15:25:24;15.60;53.70
21502;DHT22;27639;48.674;9.242;2023-03-08T15:27:50;15.70;53.40
21502;DHT22;27639;48.674;9.242;2023-03-08T15:30:21;15.60;53.40
21502;DHT22;27639;48.674;9.242;2023-03-08T15:32:47;15.50;53.30
21502;DHT22;27639;48.674;9.242;2023-03-08T15:35:13;15.50;53.30
21502;DHT22;27639;48.674;9.242;2023-03-08T15:37:39;15.50;53.30
21502;DHT22;27639;48.674;9.242;2023-03-08T15:40:08;15.50;53.10
21502;DHT22;27639;48.674;9.242;2023-03-08T15:42:35;15.50;53.30
21502;DHT22;27639;48.674;9.242;2023-03-08T15:45:00;15.50;53.30
21502;DHT22;27639;48.674;9.242;2023-03-08T15:47:26;15.40;53.20
21502;DHT22;27639;48.674;9.242;2023-03-08T15:49:52;15.40;53.20
21502;DHT22;27639;48.674;9.242;2023-03-08T15:52:17;15.40;53.10
21502;DHT22;27639;48.674;9.242;2023-03-08T15:54:43;15.40;53.10
21502;DHT22;27639;48.674;9.242;2023-03-08T15:57:12;15.40;53.10
21502;DHT22;27639;48.674;9.242;2023-03-08T15:59:39;15.30;53.20
21502;DHT22;27639;48.674;9.242;2023-03-08T16:02:05;15.40;53.20
21502;DHT22;27639;48.674;9.242;2023-03-08T16:04:31;15.40;53.00
21502;DHT22;27639;48.674;9.242;2023-03-08T16:06:57;15.40;52.70
21502;DHT22;27639;48.674;9.242;2023-03-08T16:09:22;15.50;52.70
21502;DHT22;27639;48.674;9.242;2023-03-08T16:11:48;15.60;52.70
21502;DHT22;27639;48.674;9.242;2023-03-08T16:14:14;15.50;52.60
21502;DHT22;27639;48.674;9.242;2023-03-08T16:16:43;15.50;52.60
21502;DHT22;27639;48.674;9.242;2023-03-08T16:19:08;15.40;52.60
21502;DHT22;27639;48.674;9.242;2023-03-08T16:21:34;15.50;52.60
21502;DHT22;27639;48.674;9.242;2023-03-08T16:23:59;15.50;52.90
21502;DHT22;27639;48.674;9.242;2023-03-08T16:26:27;15.50;53.00
21502;DHT22;27639;48.674;9.242;2023-03-08T16:28:53;15.50;52.90
21502;DHT22;27639;48.674;9.242;2023-03-08T16:31:20;15.40;52.80
21502;DHT22;27639;48.674;9.242;2023-03-08T16:33:46;15.40;53.10
21502;DHT22;27639;48.674;9.242;2023-03-08T16:36:11;15.40;53.30
21502;DHT22;27639;48.674;9.242;2023-03-08T16:38:37;15.30;53.40
21502;DHT22;27639;48.674;9.242;2023-03-08T16:41:03;15.30;53.90
21502;DHT22;27639;48.674;9.242;2023-03-08T16:43:29;15.20;54.20
21502;DHT22;27639;48.674;9.242;2023-03-08T16:45:59;15.10;55.60
21502;DHT22;27639;48.674;9.242;2023-03-08T16:48:25;15.00;56.00
21502;DHT22;27639;48.674;9.242;2023-03-08T16:50:57;14.90;56.50
21502;DHT22;27639;48.674;9.242;2023-03-08T16:53:24;14.80;56.60
21502;DHT22;27639;48.674;9.242;2023-03-08T16:55:50;14.70;57.10
21502;DHT22;27639;48.674;9.242;2023-03-08T16:58:18;14.70;57.40
21502;DHT22;27639;48.674;9.242;2023-03-08T17:00:44;14.70;57.50
21502;DHT22;27639;48.674;9.242;2023-03-08T17:03:10;14.60;57.40
21502;DHT22;27639;48.674;9.242;2023-03-08T17:05:43;14.60;57.50
21502;DHT22;27639;48.674;9.242;2023-03-08T17:08:10;14.60;57.70
21502;DHT22;27639;48.674;9.242;2023-03-08T17:10:37;14.30;58.40
21502;DHT22;27639;48.674;9.242;2023-03-08T17:13:03;14.30;58.70
21502;DHT22;27639;48.674;9.242;2023-03-08T17:15:29;14.30;58.70
21502;DHT22;27639;48.674;9.242;2023-03-08T17:17:54;14.30;59.20
21502;DHT22;27639;48.674;9.242;2023-03-08T17:20:21;14.20;59.10
21502;DHT22;27639;48.674;9.242;2023-03-08T17:22:47;14.30;59.40